Time;durP1;ratioP1;P1;durP2;ratioP2;P2;SDS_P1;SDS_P2;PMS_P1;PMS_P2;Temp;Humidity;BMP_temperature;BMP_pressure;BME280_temperature;BME280_humidity;BME280_pressure;Samples;Min_cycle;Max_cycle;Signal;HPM_P1;HPM_P2
2023/05/04 05:09:37;;;;;;;17.77;12.87;;;;;;;;;;5070930;28;20608;-78
2023/05/04 05:20:26;;;;;;;20.40;14.23;;;5.80;99.90;;;;;;5131500;27;20277;-77
2023/05/04 05:27:38;;;;;;;24.73;17.77;;;6.10;99.90;;;;;;5132826;27;20287;-78
2023/05/04 05:34:27;;;;;;;24.53;17.13;;;6.30;99.90;;;;;;5132327;27;20337;-76
2023/05/04 05:40:50;;;;;;;22.70;16.63;;;6.50;99.90;;;;;;5131951;27;20271;-77
2023/05/04 05:48:45;;;;;;;23.40;16.50;;;6.60;99.90;;;;;;5131429;27;20283;-77
2023/05/04 05:55:50;;;;;;;17.27;13.80;;;7.00;99.90;;;;;;5131776;27;20623;-77
2023/05/04 06:02:06;;;;;;;21.70;14.67;;;7.30;99.90;;;;;;5131724;27;20271;-77
2023/05/04 06:08:26;;;;;;;19.40;15.33;;;7.30;99.90;;;;;;5132251;27;20283;-77
2023/05/04 06:13:45;;;;;;;20.90;15.73;;;;;;;;;;5131685;27;20274;-77
2023/05/04 06:18:22;;;;;;;21.03;15.20;;;8.00;99.90;;;;;;5132618;27;20293;-77
2023/05/04 06:23:21;;;;;;;22.27;17.20;;;8.40;99.90;;;;;;5070729;28;20552;-77
2023/05/04 06:28:07;;;;;;;19.93;15.07;;;8.60;99.90;;;;;;5112090;27;20598;-77
2023/05/04 06:33:06;;;;;;;22.43;15.53;;;8.60;99.90;;;;;;5133321;27;20273;-77
2023/05/04 06:38:04;;;;;;;19.40;13.53;;;9.00;99.90;;;;;;5091972;27;20562;-77
2023/05/04 06:42:47;;;;;;;19.07;14.87;;;9.30;99.90;;;;;;5132948;27;20744;-78
2023/05/04 06:46:41;;;;;;;19.70;14.37;;;9.60;99.90;;;;;;5132209;27;20282;-77
2023/05/04 06:50:44;;;;;;;17.67;14.10;;;9.80;99.90;;;;;;5131952;27;21011;-77
2023/05/04 06:54:39;;;;;;;16.97;14.03;;;;;;;;;;5132610;27;20280;-77
2023/05/04 06:58:37;;;;;;;21.27;14.03;;;10.00;99.90;;;;;;5111361;27;20296;-77
2023/05/04 07:02:31;;;;;;;18.53;13.90;;;10.60;99.90;;;;;;5132722;27;20281;-77
2023/05/04 07:06:32;;;;;;;14.77;12.07;;;10.60;99.90;;;;;;5132948;27;20266;-77
2023/05/04 07:10:31;;;;;;;12.73;11.03;;;;;;;;;;5132412;27;20271;-77
2023/05/04 07:14:30;;;;;;;13.17;11.10;;;11.10;99.90;;;;;;5132666;27;20275;-78
2023/05/04 07:18:24;;;;;;;12.13;10.50;;;;;;;;;;5132793;27;20291;-77
2023/05/04 07:22:24;;;;;;;14.27;10.53;;;;;;;;;;5132786;27;20736;-77
2023/05/04 07:26:26;;;;;;;13.83;10.23;;;12.00;99.90;;;;;;5111948;27;20268;-77
2023/05/04 07:30:23;;;;;;;14.00;9.97;;;12.20;99.90;;;;;;5131805;27;20275;-77
2023/05/04 07:34:24;;;;;;;11.30;8.17;;;12.50;99.90;;;;;;5132640;27;20579;-77
2023/05/04 07:38:25;;;;;;;9.47;8.13;;;12.80;99.90;;;;;;5133081;27;20629;-78
2023/05/04 07:42:23;;;;;;;11.07;7.40;;;13.20;99.90;;;;;;5133176;27;20267;-77
2023/05/04 07:46:23;;;;;;;8.93;6.37;;;;;;;;;;5133366;27;20263;-77
2023/05/04 07:50:25;;;;;;;7.67;6.10;;;14.00;99.90;;;;;;5071411;28;20957;-78
2023/05/04 07:54:21;;;;;;;6.57;5.77;;;15.10;99.90;;;;;;5133428;27;20276;-77
2023/05/04 07:58:22;;;;;;;5.17;4.67;;;16.60;99.90;;;;;;5132593;27;20291;-77
2023/05/04 08:02:22;;;;;;;4.10;3.80;;;17.90;99.90;;;;;;5132873;27;20271;-78
2023/05/04 08:06:21;;;;;;;5.00;3.30;;;18.60;99.90;;;;;;5134431;27;20268;-78
2023/05/04 08:10:16;;;;;;;3.40;3.10;;;19.40;99.90;;;;;;5133754;27;20737;-78
2023/05/04 08:12:42;;;;;;;5.37;2.60;;;19.40;99.90;;;;;;5133855;28;20179;-77
2023/05/04 08:15:09;;;;;;;2.77;2.40;;;19.40;99.90;;;;;;5134483;28;20253;-78
2023/05/04 08:17:36;;;;;;;2.50;2.23;;;19.60;99.90;;;;;;5137631;28;20200;-79
2023/05/04 08:20:03;;;;;;;3.23;2.40;;;19.70;99.90;;;;;;5134806;28;20175;-78
2023/05/04 08:22:28;;;;;;;2.40;2.20;;;19.50;99.90;;;;;;5135561;28;20189;-79
2023/05/04 08:24:54;;;;;;;2.63;2.20;;;19.80;99.90;;;;;;5134909;28;20184;-78
2023/05/04 08:27:20;;;;;;;2.53;2.33;;;19.80;97.10;;;;;;5135819;28;20198;-78
2023/05/04 08:29:45;;;;;;;2.40;2.20;;;19.70;98.20;;;;;;5135864;27;20343;-78
2023/05/04 08:32:11;;;;;;;2.40;2.20;;;19.70;98.70;;;;;;5134572;28;20227;-78
2023/05/04 08:34:37;;;;;;;4.73;2.30;;;19.80;96.90;;;;;;5135205;28;20183;-78
2023/05/04 08:37:03;;;;;;;2.27;2.07;;;19.70;97.00;;;;;;5135017;28;20656;-78
2023/05/04 08:39:29;;;;;;;2.93;2.13;;;19.90;95.10;;;;;;5133589;28;20641;-78
2023/05/04 08:41:55;;;;;;;2.20;2.00;;;19.80;95.40;;;;;;5134158;28;20179;-78
2023/05/04 08:44:21;;;;;;;2.40;2.20;;;19.80;94.70;;;;;;5135060;28;20640;-78
2023/05/04 08:46:53;;;;;;;4.90;2.50;;;20.00;96.40;;;;;;5132884;27;20199;-78
2023/05/04 08:49:22;;;;;;;3.13;2.13;;;20.30;95.50;;;;;;5134857;28;20566;-78
2023/05/04 08:51:49;;;;;;;2.53;1.90;;;20.70;94.70;;;;;;5136203;27;20279;-79
2023/05/04 08:54:16;;;;;;;3.17;2.33;;;20.70;92.40;;;;;;5135818;27;20175;-78
2023/05/04 08:56:44;;;;;;;3.43;2.10;;;20.50;92.60;;;;;;5136471;27;20171;-78
2023/05/04 08:59:20;;;;;;;3.53;1.97;;;20.50;93.90;;;;;;5136678;27;20263;-79
2023/05/04 09:01:50;;;;;;;2.80;2.27;;;20.70;94.40;;;;;;5135197;27;20255;-78
2023/05/04 09:04:17;;;;;;;2.20;2.00;;;21.10;92.30;;;;;;5135696;27;20179;-78
2023/05/04 09:06:46;;;;;;;4.57;2.17;;;21.00;92.30;;;;;;5135201;27;20195;-78
2023/05/04 09:09:12;;;;;;;2.27;2.10;;;21.40;92.20;;;;;;5135280;27;20575;-78
2023/05/04 09:11:38;;;;;;;2.97;2.27;;;21.60;92.80;;;;;;5133942;28;20184;-78
2023/05/04 09:14:03;;;;;;;2.20;2.00;;;21.60;90.20;;;;;;5134538;28;20179;-78
2023/05/04 09:16:38;;;;;;;1.70;1.60;;;21.30;91.70;;;;;;5135694;27;20177;-79
2023/05/04 09:19:16;;;;;;;4.20;1.70;;;21.20;90.00;;;;;;5135387;28;20194;-78
2023/05/04 09:21:43;;;;;;;2.40;1.77;;;21.00;90.20;;;;;;5122071;27;20179;-78
2023/05/04 09:24:26;;;;;;;2.00;1.90;;;21.10;89.90;;;;;;5120263;28;20203;-78
2023/05/04 09:26:52;;;;;;;2.20;2.00;;;21.30;90.80;;;;;;5122423;28;20195;-79
2023/05/04 09:29:17;;;;;;;2.03;1.83;;;21.70;90.40;;;;;;5121819;28;20278;-78
2023/05/04 09:31:48;;;;;;;2.20;2.00;;;22.00;88.50;;;;;;5118200;28;20687;-78
2023/05/04 09:34:14;;;;;;;2.77;2.20;;;21.70;90.00;;;;;;5118435;28;20540;-78
2023/05/04 09:36:43;;;;;;;3.63;1.60;;;21.50;90.40;;;;;;5122080;28;20261;-78
2023/05/04 09:39:13;;;;;;;1.80;1.60;;;21.60;88.80;;;;;;5120970;28;20207;-79
2023/05/04 09:41:39;;;;;;;2.03;1.80;;;21.40;90.70;;;;;;5123011;28;20177;-79
2023/05/04 09:44:05;;;;;;;1.50;1.40;;;21.50;87.10;;;;;;5121067;27;20170;-79
2023/05/04 09:46:31;;;;;;;2.57;1.50;;;21.40;86.60;;;;;;5120233;28;20632;-79
2023/05/04 09:48:57;;;;;;;1.80;1.60;;;21.40;89.70;;;;;;5118775;28;20304;-79
2023/05/04 09:51:26;;;;;;;2.47;1.63;;;21.70;88.80;;;;;;5119762;28;20192;-79
2023/05/04 09:53:52;;;;;;;3.03;1.80;;;22.10;88.60;;;;;;5121779;28;20256;-78
2023/05/04 09:56:40;;;;;;;1.80;1.70;;;22.10;87.40;;;;;;5121184;28;20255;-79
2023/05/04 09:59:08;;;;;;;1.90;1.80;;;22.20;85.20;;;;;;5121467;28;20174;-78
2023/05/04 10:01:34;;;;;;;2.70;1.73;;;22.00;86.10;;;;;;5121004;28;20177;-78
2023/05/04 10:04:01;;;;;;;2.13;1.93;;;21.70;84.20;;;;;;5120927;28;20175;-79
2023/05/04 10:06:29;;;;;;;1.97;1.67;;;21.70;83.80;;;;;;5120092;28;20190;-78
2023/05/04 10:08:55;;;;;;;2.10;1.67;;;21.50;83.70;;;;;;5118502;28;20212;-78
2023/05/04 10:11:24;;;;;;;4.30;1.60;;;21.50;85.40;;;;;;5116077;28;20181;-78
2023/05/04 10:13:53;;;;;;;1.90;1.53;;;21.60;85.70;;;;;;5117887;28;20231;-77
2023/05/04 10:16:37;;;;;;;3.10;1.60;;;21.80;90.00;;;;;;5115761;28;20530;-78
2023/05/04 10:19:24;;;;;;;2.60;2.10;;;22.20;86.90;;;;;;5115625;28;20174;-78
2023/05/04 10:21:50;;;;;;;3.33;2.07;;;22.40;84.40;;;;;;5115760;28;20695;-78
2023/05/04 10:24:22;;;;;;;1.93;1.50;;;22.20;84.80;;;;;;5116863;28;20202;-78
2023/05/04 10:27:06;;;;;;;1.77;1.50;;;22.10;81.60;;;;;;5117044;28;20204;-77
2023/05/04 10:29:33;;;;;;;1.67;1.57;;;22.00;81.00;;;;;;5114967;28;20205;-77
2023/05/04 10:32:00;;;;;;;2.30;1.60;;;22.00;85.60;;;;;;5115220;28;20255;-77
2023/05/04 10:34:28;;;;;;;1.70;1.50;;;22.10;84.60;;;;;;5115776;28;20225;-77
2023/05/04 10:36:55;;;;;;;2.00;1.73;;;22.50;83.20;;;;;;5114346;28;20201;-78
2023/05/04 10:39:22;;;;;;;2.13;1.80;;;22.90;83.70;;;;;;5114402;28;20203;-78
2023/05/04 10:42:06;;;;;;;3.77;2.00;;;23.20;92.50;;;;;;5115446;28;20178;-78
2023/05/04 10:44:47;;;;;;;3.67;2.17;;;23.20;81.80;;;;;;5115753;28;20163;-78
2023/05/04 10:47:13;;;;;;;2.50;2.30;;;23.00;83.50;;;;;;5115759;28;20206;-77
2023/05/04 10:49:41;;;;;;;3.07;2.10;;;23.20;84.40;;;;;;5115328;28;20224;-77
2023/05/04 10:52:09;;;;;;;2.13;1.93;;;23.20;80.20;;;;;;5114447;28;20177;-78
2023/05/04 10:54:36;;;;;;;3.63;2.37;;;23.30;83.90;;;;;;5115364;27;20672;-78
2023/05/04 10:57:07;;;;;;;3.77;2.30;;;23.20;82.90;;;;;;5116770;28;20202;-78
2023/05/04 10:59:33;;;;;;;2.90;2.10;;;23.10;81.10;;;;;;5117972;28;20183;-78
2023/05/04 11:02:00;;;;;;;3.50;2.03;;;23.30;86.80;;;;;;5119509;28;20176;-79
2023/05/04 11:04:26;;;;;;;4.17;2.30;;;23.20;79.90;;;;;;5118744;28;20289;-78
2023/05/04 11:07:00;;;;;;;2.90;2.47;;;23.50;83.00;;;;;;5124839;28;20214;-78
2023/05/04 11:09:27;;;;;;;3.53;2.17;;;23.80;80.00;;;;;;5130480;28;20214;-78
2023/05/04 11:11:56;;;;;;;2.97;2.43;;;23.90;79.90;;;;;;5120863;28;20660;-78
2023/05/04 11:14:25;;;;;;;3.47;2.07;;;24.40;84.50;;;;;;5117945;28;20188;-78
2023/05/04 11:16:50;;;;;;;2.40;2.20;;;24.70;80.10;;;;;;5118996;28;20187;-78
2023/05/04 11:19:17;;;;;;;2.80;2.13;;;24.40;80.40;;;;;;5119441;28;20283;-77
2023/05/04 11:21:42;;;;;;;2.20;2.00;;;24.40;77.20;;;;;;5117108;28;20184;-78
2023/05/04 11:24:08;;;;;;;2.67;2.00;;;24.40;74.70;;;;;;5119006;28;20200;-79
2023/05/04 11:26:44;;;;;;;2.13;1.87;;;24.50;78.50;;;;;;5118771;28;20175;-78
2023/05/04 11:29:14;;;;;;;2.73;1.60;;;24.70;73.80;;;;;;5117385;28;20662;-78
2023/05/04 11:31:39;;;;;;;1.90;1.77;;;24.70;77.30;;;;;;5117175;28;20259;-79
2023/05/04 11:34:06;;;;;;;1.93;1.83;;;25.10;79.90;;;;;;5119326;28;20213;-78
2023/05/04 11:36:39;;;;;;;3.23;2.23;;;25.00;73.10;;;;;;5115866;28;20180;-79
2023/05/04 11:39:07;;;;;;;2.80;1.90;;;25.20;75.70;;;;;;5118919;28;20173;-78
2023/05/04 11:41:32;;;;;;;2.27;2.07;;;25.40;73.50;;;;;;5118838;28;20357;-79
2023/05/04 11:44:00;;;;;;;2.00;1.80;;;26.00;72.10;;;;;;5117309;28;20280;-78
2023/05/04 11:46:27;;;;;;;2.43;1.90;;;26.40;69.60;;;;;;5119109;28;20194;-78
2023/05/04 11:48:52;;;;;;;3.00;1.73;;;26.20;67.90;;;;;;5118502;28;20196;-78
2023/05/04 11:51:22;;;;;;;4.23;2.00;;;26.10;73.10;;;;;;5117815;28;20178;-79
2023/05/04 11:53:48;;;;;;;2.77;2.17;;;26.40;65.50;;;;;;5118267;28;20240;-79
2023/05/04 11:56:14;;;;;;;1.93;1.83;;;26.50;67.00;;;;;;5115274;28;20203;-78
2023/05/04 11:58:39;;;;;;;2.23;2.03;;;26.60;66.60;;;;;;5118424;28;20187;-79
2023/05/04 12:01:05;;;;;;;3.47;1.93;;;26.60;63.90;;;;;;5116401;28;20587;-78
2023/05/04 12:03:33;;;;;;;3.27;2.10;;;26.80;65.20;;;;;;5118302;28;20232;-78
2023/05/04 12:06:00;;;;;;;3.50;2.40;;;26.60;63.50;;;;;;5117112;28;20309;-79
2023/05/04 12:08:31;;;;;;;2.70;2.20;;;26.70;68.40;;;;;;5118142;28;20699;-79
2023/05/04 12:11:24;;;;;;;2.23;2.03;;;27.00;68.80;;;;;;5113332;28;20194;-78
2023/05/04 12:14:12;;;;;;;2.60;2.20;;;27.30;62.40;;;;;;5118222;28;20175;-78
2023/05/04 12:16:39;;;;;;;2.13;1.93;;;27.50;61.70;;;;;;5117258;28;20284;-78
2023/05/04 12:19:06;;;;;;;2.23;1.90;;;27.60;63.40;;;;;;5117615;28;20176;-79
2023/05/04 12:21:33;;;;;;;3.13;1.90;;;27.50;63.60;;;;;;5116392;28;20175;-78
2023/05/04 12:23:59;;;;;;;3.50;2.27;;;27.40;60.20;;;;;;5114351;28;20179;-79
2023/05/04 12:26:26;;;;;;;2.33;1.63;;;27.20;59.90;;;;;;5114906;28;20194;-79
2023/05/04 12:28:53;;;;;;;2.83;1.70;;;27.40;62.60;;;;;;5114801;28;20229;-78
2023/05/04 12:31:18;;;;;;;3.30;2.20;;;27.80;62.20;;;;;;5112980;28;20175;-76
2023/05/04 12:33:44;;;;;;;3.57;2.00;;;27.50;58.60;;;;;;5113668;28;20189;-79
2023/05/04 12:36:10;;;;;;;4.07;2.07;;;27.10;62.70;;;;;;5113742;28;20170;-77
2023/05/04 12:38:38;;;;;;;2.73;1.70;;;27.30;61.70;;;;;;5113428;28;20194;-79
2023/05/04 12:41:09;;;;;;;2.10;1.90;;;27.50;65.70;;;;;;5114381;28;20190;-77
2023/05/04 12:43:35;;;;;;;2.83;2.00;;;27.80;60.80;;;;;;5112379;28;20175;-77
2023/05/04 12:46:01;;;;;;;1.83;1.73;;;27.90;57.90;;;;;;5114889;28;20200;-77
2023/05/04 12:48:30;;;;;;;1.80;1.70;;;27.30;57.40;;;;;;5118053;28;20570;-78
2023/05/04 12:50:56;;;;;;;2.50;2.23;;;27.20;59.40;;;;;;5117656;28;20169;-78
2023/05/04 12:53:26;;;;;;;2.30;2.10;;;27.70;58.80;;;;;;5119102;28;20181;-78
2023/05/04 12:55:52;;;;;;;3.50;2.10;;;28.20;58.80;;;;;;5115443;28;20157;-77
2023/05/04 12:58:18;;;;;;;3.17;2.20;;;28.40;57.60;;;;;;5117549;28;20188;-77
2023/05/04 13:00:44;;;;;;;5.07;1.60;;;27.90;58.10;;;;;;5118091;28;20172;-78
2023/05/04 13:03:11;;;;;;;2.50;2.30;;;28.20;61.50;;;;;;5117540;28;20206;-78
2023/05/04 13:05:37;;;;;;;3.00;2.03;;;28.40;56.80;;;;;;5117438;28;20411;-77
2023/05/04 13:08:03;;;;;;;2.03;1.80;;;28.00;58.80;;;;;;5117111;28;20223;-77
2023/05/04 13:10:29;;;;;;;2.00;1.73;;;28.20;58.80;;;;;;5116963;28;20167;-78
2023/05/04 13:12:55;;;;;;;2.27;1.80;;;28.50;58.20;;;;;;5117424;28;20219;-77
2023/05/04 13:15:21;;;;;;;1.70;1.60;;;28.00;56.70;;;;;;5116285;28;20180;-77
2023/05/04 13:17:47;;;;;;;2.07;1.87;;;28.10;57.10;;;;;;5116227;28;20200;-77
2023/05/04 13:20:12;;;;;;;2.67;2.03;;;28.30;59.70;;;;;;5116111;28;20633;-75
2023/05/04 13:22:39;;;;;;;3.83;2.00;;;28.60;55.30;;;;;;5117229;28;20181;-75
2023/05/04 13:25:06;;;;;;;2.40;1.80;;;28.40;55.80;;;;;;5117691;28;20179;-77
2023/05/04 13:27:32;;;;;;;2.37;2.17;;;28.30;56.90;;;;;;5116296;28;20571;-76
2023/05/04 13:30:00;;;;;;;3.40;1.70;;;28.00;55.60;;;;;;5116277;28;20297;-76
2023/05/04 13:32:26;;;;;;;2.13;1.93;;;27.60;57.60;;;;;;5117428;27;20218;-78
2023/05/04 13:34:52;;;;;;;3.50;2.17;;;27.20;60.00;;;;;;5116656;28;20224;-78
2023/05/04 13:37:18;;;;;;;4.23;1.97;;;27.00;60.80;;;;;;5117304;28;20193;-78
2023/05/04 13:39:44;;;;;;;3.00;1.60;;;26.90;57.20;;;;;;5117347;27;20235;-78
2023/05/04 13:42:11;;;;;;;2.33;2.00;;;27.00;57.80;;;;;;5117593;28;20185;-78
2023/05/04 13:44:36;;;;;;;1.90;1.73;;;27.10;56.20;;;;;;5117881;28;20207;-78
2023/05/04 13:47:03;;;;;;;2.13;1.70;;;27.30;58.60;;;;;;5116937;28;20299;-77
2023/05/04 13:49:29;;;;;;;4.70;1.73;;;27.60;56.50;;;;;;5117561;28;20259;-76
2023/05/04 13:51:58;;;;;;;1.53;1.43;;;28.20;57.20;;;;;;5117448;28;20211;-77
2023/05/04 13:54:24;;;;;;;2.57;2.00;;;28.60;56.90;;;;;;5116013;28;20181;-77
2023/05/04 13:56:51;;;;;;;2.70;2.00;;;28.60;55.50;;;;;;5116358;28;20576;-77
2023/05/04 13:59:16;;;;;;;2.13;1.93;;;28.10;53.60;;;;;;5116609;28;20181;-77
2023/05/04 14:01:42;;;;;;;2.30;1.50;;;27.90;54.70;;;;;;5114837;28;20175;-77
2023/05/04 14:04:08;;;;;;;2.33;1.93;;;27.60;58.40;;;;;;5116052;27;20175;-76
2023/05/04 14:06:34;;;;;;;2.50;1.77;;;27.60;57.20;;;;;;5116486;28;20198;-77
2023/05/04 14:09:00;;;;;;;3.30;1.90;;;27.90;55.40;;;;;;5116034;28;20271;-78
2023/05/04 14:11:26;;;;;;;4.00;1.87;;;27.80;54.90;;;;;;5115452;28;20176;-77
2023/05/04 14:13:55;;;;;;;2.13;1.70;;;27.20;55.70;;;;;;5119912;28;20174;-78
2023/05/04 14:16:22;;;;;;;2.20;1.80;;;26.60;56.00;;;;;;5116248;28;20628;-76
2023/05/04 14:18:47;;;;;;;2.63;1.60;;;26.50;60.40;;;;;;5116123;28;20298;-77
2023/05/04 14:21:13;;;;;;;4.43;1.70;;;26.90;56.20;;;;;;5117026;28;20210;-77
2023/05/04 14:23:39;;;;;;;3.10;2.07;;;27.20;55.50;;;;;;5116068;28;20212;-76
2023/05/04 14:26:05;;;;;;;2.83;2.20;;;27.70;61.10;;;;;;5116047;28;20198;-77
2023/05/04 14:28:31;;;;;;;3.87;1.60;;;27.90;56.60;;;;;;5115807;27;20292;-77
2023/05/04 14:30:57;;;;;;;4.20;1.77;;;27.90;54.50;;;;;;5115767;28;20206;-76
2023/05/04 14:33:23;;;;;;;2.23;1.60;;;27.90;56.70;;;;;;5116002;28;20172;-77
2023/05/04 14:35:49;;;;;;;1.97;1.70;;;27.00;55.60;;;;;;5114943;28;20271;-78
2023/05/04 14:38:15;;;;;;;4.23;1.67;;;26.70;55.60;;;;;;5115894;28;20201;-77
2023/05/04 14:40:41;;;;;;;5.07;1.87;;;26.90;56.70;;;;;;5116018;28;20213;-77
2023/05/04 14:43:06;;;;;;;1.80;1.70;;;27.10;54.40;;;;;;5116260;28;20228;-77
2023/05/04 14:45:33;;;;;;;1.67;1.50;;;27.50;56.80;;;;;;5114313;28;20179;-77
2023/05/04 14:47:59;;;;;;;2.60;1.60;;;27.70;57.90;;;;;;5115026;28;20193;-77
2023/05/04 14:50:25;;;;;;;2.23;1.60;;;28.10;55.00;;;;;;5115157;28;20206;-77
2023/05/04 14:52:50;;;;;;;4.77;1.50;;;28.10;52.70;;;;;;5115488;28;20177;-78
2023/05/04 14:55:16;;;;;;;1.60;1.50;;;28.10;54.80;;;;;;5115343;28;20253;-78
2023/05/04 14:57:42;;;;;;;2.70;1.57;;;28.10;51.90;;;;;;5115942;28;20210;-77
2023/05/04 15:00:09;;;;;;;2.00;1.70;;;28.10;53.80;;;;;;5115959;28;20584;-77
2023/05/04 15:02:37;;;;;;;2.30;1.63;;;27.90;51.40;;;;;;5115306;28;20175;-77
2023/05/04 15:05:03;;;;;;;1.50;1.40;;;27.60;52.90;;;;;;5115441;28;20174;-77
2023/05/04 15:07:29;;;;;;;2.03;1.50;;;27.60;53.90;;;;;;5115896;28;20199;-78
2023/05/04 15:09:55;;;;;;;2.60;1.77;;;28.00;53.20;;;;;;5114099;28;20218;-78
2023/05/04 15:12:21;;;;;;;2.80;1.43;;;27.80;53.20;;;;;;5116684;28;20630;-77
2023/05/04 15:14:47;;;;;;;2.03;1.83;;;27.80;52.70;;;;;;5120037;28;20535;-77
2023/05/04 15:17:13;;;;;;;2.53;1.70;;;27.70;54.70;;;;;;5122989;28;20202;-78
2023/05/04 15:19:39;;;;;;;1.80;1.70;;;27.30;53.00;;;;;;5119123;28;20171;-77
2023/05/04 15:22:05;;;;;;;2.63;2.13;;;27.50;53.50;;;;;;5116821;28;20202;-77
2023/05/04 15:24:31;;;;;;;3.43;2.03;;;27.40;54.00;;;;;;5115549;28;20176;-78
2023/05/04 15:26:56;;;;;;;2.57;2.00;;;27.10;52.30;;;;;;5113996;28;20258;-77
2023/05/04 15:29:23;;;;;;;4.10;1.63;;;27.30;53.30;;;;;;5115515;28;20200;-77
2023/05/04 15:31:49;;;;;;;1.83;1.70;;;27.20;52.50;;;;;;5115439;28;20206;-77
2023/05/04 15:34:15;;;;;;;3.13;2.00;;;27.10;52.60;;;;;;5113973;28;20576;-78
2023/05/04 15:36:41;;;;;;;3.07;1.70;;;26.90;53.10;;;;;;5114074;28;20576;-78
2023/05/04 15:39:07;;;;;;;2.80;1.60;;;27.10;52.90;;;;;;5115212;28;20189;-77
2023/05/04 15:41:34;;;;;;;4.00;1.60;;;27.20;51.70;;;;;;5115252;28;20171;-78
2023/05/04 15:44:01;;;;;;;1.67;1.53;;;27.20;53.10;;;;;;5115206;28;20187;-78
2023/05/04 15:46:26;;;;;;;2.23;1.50;;;27.00;52.50;;;;;;5113379;28;20629;-76
2023/05/04 15:48:55;;;;;;;1.70;1.47;;;26.70;53.40;;;;;;5113364;28;20207;-77
2023/05/04 15:51:21;;;;;;;3.27;1.70;;;26.70;53.00;;;;;;5114660;28;20172;-77
2023/05/04 15:53:47;;;;;;;2.50;1.40;;;26.30;52.20;;;;;;5115194;28;20244;-78
2023/05/04 15:56:13;;;;;;;2.17;1.63;;;26.00;52.60;;;;;;5114596;28;20254;-76
2023/05/04 15:58:39;;;;;;;2.00;1.67;;;26.20;53.50;;;;;;5113719;28;20218;-76
2023/05/04 16:01:06;;;;;;;2.13;1.60;;;26.10;52.00;;;;;;5113547;28;20617;-76
2023/05/04 16:03:33;;;;;;;2.83;1.60;;;26.10;52.60;;;;;;5113812;28;20178;-76
2023/05/04 16:06:00;;;;;;;1.90;1.60;;;26.20;52.90;;;;;;5114097;28;20609;-76
2023/05/04 16:08:26;;;;;;;3.40;1.80;;;26.20;52.30;;;;;;5113426;28;20256;-76
2023/05/04 16:10:52;;;;;;;3.83;1.77;;;25.90;53.70;;;;;;5113543;28;20324;-77
2023/05/04 16:13:19;;;;;;;2.23;1.80;;;24.90;53.20;;;;;;5113617;28;20202;-77
2023/05/04 16:15:49;;;;;;;2.20;1.63;;;23.60;55.50;;;;;;5113653;28;20181;-77
2023/05/04 16:18:16;;;;;;;1.80;1.70;;;22.60;57.50;;;;;;5112315;28;20246;-76
2023/05/04 16:20:42;;;;;;;4.27;1.57;;;21.70;58.50;;;;;;5113804;28;20180;-76
2023/05/04 16:23:07;;;;;;;1.90;1.80;;;21.10;62.00;;;;;;5112353;28;20183;-76
2023/05/04 16:25:33;;;;;;;2.40;1.77;;;20.90;61.50;;;;;;5113617;28;20694;-77
2023/05/04 16:27:59;;;;;;;2.67;1.93;;;20.80;62.10;;;;;;5113375;28;20184;-77
2023/05/04 16:30:31;;;;;;;7.20;2.63;;;20.70;62.10;;;;;;5114319;28;20203;-77
2023/05/04 16:32:57;;;;;;;3.47;2.33;;;20.60;63.50;;;;;;5118814;28;20172;-77
2023/05/04 16:35:24;;;;;;;4.53;2.50;;;20.50;65.80;;;;;;5117944;28;20179;-77
2023/05/04 16:37:50;;;;;;;4.63;2.50;;;20.30;65.90;;;;;;5120246;28;20194;-78
2023/05/04 16:40:16;;;;;;;6.97;2.90;;;20.10;66.40;;;;;;5121861;28;20187;-78
2023/05/04 16:42:42;;;;;;;3.50;2.57;;;20.10;67.50;;;;;;5118494;28;20251;-77
2023/05/04 16:45:12;;;;;;;3.17;2.87;;;20.00;66.40;;;;;;5117237;28;20653;-78
2023/05/04 16:47:42;;;;;;;3.00;2.70;;;19.80;69.30;;;;;;5119039;28;20219;-80
2023/05/04 16:50:08;;;;;;;3.07;2.77;;;19.80;70.00;;;;;;5116947;28;20207;-80
2023/05/04 16:52:34;;;;;;;7.03;2.87;;;19.70;70.70;;;;;;5118488;28;20179;-78
2023/05/04 16:55:00;;;;;;;4.27;2.57;;;19.60;71.50;;;;;;5117717;28;20182;-79
2023/05/04 16:57:26;;;;;;;5.00;2.50;;;19.50;71.30;;;;;;5119809;28;20576;-79
2023/05/04 17:52:55;;;;;;;3.10;1.80;;;18.10;74.10;;;;;;5132098;27;20275;-77
